createdAt,value
2023-05-21T00:01:16.497Z,0.70
2023-05-21T00:03:46.938Z,0.77
2023-05-21T00:06:15.679Z,1.40
2023-05-21T00:08:44.090Z,2.57
2023-05-21T00:11:12.389Z,1.13
2023-05-21T00:13:40.740Z,0.70
2023-05-21T00:16:11.234Z,1.23
2023-05-21T00:18:40.330Z,3.63
2023-05-21T00:21:10.014Z,0.60
2023-05-21T00:23:39.779Z,0.50
2023-05-21T00:26:08.111Z,0.83
2023-05-21T00:28:36.533Z,0.60
2023-05-21T00:31:04.891Z,0.60
2023-05-21T00:33:33.993Z,0.60
2023-05-21T00:36:03.379Z,1.03
2023-05-21T00:38:33.142Z,0.77
2023-05-21T00:41:02.383Z,0.97
2023-05-21T00:43:32.652Z,0.80
2023-05-21T00:46:01.031Z,1.33
2023-05-21T00:48:29.388Z,1.20
2023-05-21T00:50:57.736Z,0.40
2023-05-21T00:53:27.594Z,0.60
2023-05-21T00:55:57.301Z,0.60
2023-05-21T00:58:25.692Z,0.70
2023-05-21T01:00:55.933Z,0.73
2023-05-21T01:03:24.571Z,0.73
2023-05-21T01:05:53.273Z,0.70
2023-05-21T01:08:22.056Z,1.23
2023-05-21T01:10:50.415Z,0.70
2023-05-21T01:13:20.674Z,0.60
2023-05-21T01:15:48.977Z,1.07
2023-05-21T01:18:17.316Z,1.73
2023-05-21T01:20:48.047Z,1.03
2023-05-21T01:23:18.451Z,2.00
2023-05-21T01:25:46.845Z,0.87
2023-05-21T01:28:15.178Z,0.73
2023-05-21T01:30:43.688Z,0.70
2023-05-21T01:33:13.800Z,0.70
2023-05-21T01:35:44.095Z,0.60
2023-05-21T01:38:14.572Z,1.47
2023-05-21T01:40:47.402Z,0.60
2023-05-21T01:43:15.776Z,1.87
2023-05-21T01:45:44.288Z,1.30
2023-05-21T01:48:12.627Z,0.57
2023-05-21T01:50:41.222Z,1.37
2023-05-21T01:53:09.553Z,1.90
2023-05-21T01:55:41.889Z,0.70
2023-05-21T01:58:11.647Z,0.50
2023-05-21T02:00:40.307Z,1.50
2023-05-21T02:03:08.934Z,1.93
2023-05-21T02:05:37.725Z,3.70
2023-05-21T02:08:08.428Z,2.37
2023-05-21T02:10:36.764Z,1.33
2023-05-21T02:13:05.113Z,0.70
2023-05-21T02:15:35.595Z,1.27
2023-05-21T02:18:04.420Z,0.53
2023-05-21T02:20:32.874Z,1.23
2023-05-21T02:23:01.208Z,2.97
2023-05-21T02:25:29.599Z,0.70
2023-05-21T02:27:57.915Z,0.70
2023-05-21T02:30:26.308Z,0.77
2023-05-21T02:32:59.019Z,0.50
2023-05-21T02:35:27.479Z,1.00
2023-05-21T02:37:59.047Z,1.77
2023-05-21T02:40:27.377Z,0.80
2023-05-21T02:42:55.711Z,2.57
2023-05-21T02:45:24.029Z,4.27
2023-05-21T02:47:52.398Z,0.73
2023-05-21T02:50:23.312Z,1.07
2023-05-21T02:52:52.315Z,1.03
2023-05-21T02:55:20.814Z,1.33
2023-05-21T02:57:49.556Z,1.37
2023-05-21T03:00:18.127Z,0.60
2023-05-21T03:02:46.511Z,0.90
2023-05-21T03:05:14.890Z,0.97
2023-05-21T03:07:44.593Z,1.50
2023-05-21T03:10:12.887Z,1.00
2023-05-21T03:12:41.189Z,0.60
2023-05-21T03:15:10.049Z,1.90
2023-05-21T03:17:38.416Z,0.97
2023-05-21T03:20:08.849Z,0.87
2023-05-21T03:22:38.603Z,0.57
2023-05-21T03:25:09.250Z,3.37
2023-05-21T03:27:37.592Z,0.87
2023-05-21T03:30:06.973Z,1.47
2023-05-21T03:32:37.798Z,3.03
2023-05-21T03:35:06.606Z,0.43
2023-05-21T03:37:34.876Z,1.23
2023-05-21T03:40:03.621Z,1.00
2023-05-21T03:42:33.301Z,0.70
2023-05-21T03:45:01.601Z,0.57
2023-05-21T03:47:29.972Z,1.33
2023-05-21T03:49:58.350Z,1.33
2023-05-21T03:52:26.658Z,3.30
2023-05-21T03:54:54.970Z,1.60
2023-05-21T03:57:23.333Z,0.40
2023-05-21T03:59:53.021Z,1.10
2023-05-21T04:02:21.437Z,0.77
2023-05-21T04:04:51.610Z,0.87
2023-05-21T04:07:20.155Z,1.37
2023-05-21T04:09:48.440Z,1.77
2023-05-21T04:12:18.118Z,0.77
2023-05-21T04:14:46.582Z,0.60
2023-05-21T04:17:16.275Z,1.67
2023-05-21T04:19:44.601Z,0.60
2023-05-21T04:22:13.084Z,0.90
2023-05-21T04:24:41.423Z,0.50
2023-05-21T04:27:10.054Z,1.47
2023-05-21T04:29:42.723Z,0.57
2023-05-21T04:32:11.731Z,1.27
2023-05-21T04:34:42.002Z,0.57
2023-05-21T04:37:10.363Z,3.03
2023-05-21T04:39:38.714Z,1.10
2023-05-21T04:42:10.726Z,0.97
2023-05-21T04:44:40.325Z,0.70
2023-05-21T04:47:08.938Z,3.57
2023-05-21T04:49:37.259Z,1.17
2023-05-21T04:52:08.341Z,2.43
2023-05-21T04:54:38.983Z,0.70
2023-05-21T04:57:07.845Z,1.83
2023-05-21T04:59:36.180Z,0.80
2023-05-21T05:02:04.587Z,1.07
2023-05-21T05:04:33.133Z,0.50
2023-05-21T05:07:01.744Z,0.50
2023-05-21T05:09:31.758Z,0.73
2023-05-21T05:12:00.113Z,0.83
2023-05-21T05:14:28.462Z,2.93
2023-05-21T05:17:00.071Z,1.10
2023-05-21T05:19:28.527Z,1.67
2023-05-21T05:21:56.942Z,0.80
2023-05-21T05:24:25.249Z,3.07
2023-05-21T05:26:54.995Z,2.40
2023-05-21T05:29:23.381Z,0.73
2023-05-21T05:31:51.698Z,1.03
2023-05-21T05:34:20.056Z,2.00
2023-05-21T05:36:48.388Z,2.90
2023-05-21T05:39:16.682Z,1.80
2023-05-21T05:41:45.017Z,2.70
2023-05-21T05:44:14.652Z,1.37
2023-05-21T05:46:42.993Z,1.03
2023-05-21T05:49:11.388Z,1.23
2023-05-21T05:51:39.724Z,2.87
2023-05-21T05:54:07.988Z,2.20
2023-05-21T05:56:36.386Z,2.43
2023-05-21T05:59:04.692Z,1.30
2023-05-21T06:01:34.415Z,1.53
2023-05-21T06:04:02.761Z,3.30
2023-05-21T06:06:31.658Z,0.63
2023-05-21T06:08:59.983Z,1.20
2023-05-21T06:11:28.296Z,1.13
2023-05-21T06:13:56.727Z,0.90
2023-05-21T06:16:25.111Z,2.80
2023-05-21T06:18:54.906Z,1.07
2023-05-21T06:21:23.244Z,0.77
2023-05-21T06:23:51.552Z,0.97
2023-05-21T06:26:20.167Z,1.17
2023-05-21T06:28:48.706Z,1.47
2023-05-21T06:31:17.178Z,0.67
2023-05-21T06:33:45.887Z,1.20
2023-05-21T06:36:16.281Z,0.87
2023-05-21T06:38:44.583Z,1.83
2023-05-21T06:41:12.933Z,1.23
2023-05-21T06:43:41.252Z,1.20
2023-05-21T06:46:09.676Z,2.03
2023-05-21T06:48:38.047Z,1.53
2023-05-21T06:51:06.329Z,0.47
2023-05-21T06:53:36.139Z,0.70
2023-05-21T06:56:04.461Z,1.50
2023-05-21T06:58:32.751Z,1.10
2023-05-21T07:01:01.191Z,1.07
2023-05-21T07:03:29.627Z,0.60
2023-05-21T07:05:58.720Z,1.10
2023-05-21T07:08:27.295Z,0.97
2023-05-21T07:10:57.187Z,1.57
2023-05-21T07:13:25.629Z,0.80
2023-05-21T07:15:53.984Z,1.20
2023-05-21T07:18:22.322Z,1.57
2023-05-21T07:20:50.912Z,0.90
2023-05-21T07:23:19.268Z,1.23
2023-05-21T07:25:47.546Z,3.40
2023-05-21T07:28:17.213Z,0.80
2023-05-21T07:30:45.558Z,2.70
2023-05-21T07:33:13.949Z,1.07
2023-05-21T07:35:42.305Z,1.27
2023-05-21T07:38:10.768Z,0.70
2023-05-21T07:40:39.066Z,1.40
2023-05-21T07:43:07.364Z,1.27
2023-05-21T07:45:37.215Z,0.93
2023-05-21T07:48:05.840Z,2.43
2023-05-21T07:50:34.147Z,2.20
2023-05-21T07:53:02.532Z,2.07
2023-05-21T07:55:30.964Z,1.00
2023-05-21T07:57:59.773Z,1.07
2023-05-21T08:00:28.158Z,6.53
2023-05-21T08:02:57.983Z,0.80
2023-05-21T08:05:26.360Z,1.43
2023-05-21T08:07:54.721Z,1.50
2023-05-21T08:10:23.107Z,3.17
2023-05-21T08:12:51.500Z,0.90
2023-05-21T08:15:19.833Z,1.23
2023-05-21T08:17:48.162Z,0.80
2023-05-21T08:20:18.073Z,2.07
2023-05-21T08:22:46.405Z,1.80
2023-05-21T08:25:14.721Z,1.67
2023-05-21T08:27:43.163Z,1.20
2023-05-21T08:30:12.048Z,1.57
2023-05-21T08:32:40.434Z,0.97
2023-05-21T08:35:09.441Z,1.00
2023-05-21T08:37:39.167Z,1.37
2023-05-21T08:40:09.144Z,1.57
2023-05-21T08:42:38.722Z,1.63
2023-05-21T08:45:07.422Z,0.63
2023-05-21T08:47:36.277Z,2.07
2023-05-21T08:50:05.649Z,1.73
2023-05-21T08:52:33.955Z,3.37
2023-05-21T08:55:03.908Z,7.67
2023-05-21T08:57:32.672Z,2.23
2023-05-21T09:00:01.917Z,1.33
2023-05-21T09:02:30.565Z,1.57
2023-05-21T09:04:59.192Z,2.50
2023-05-21T09:07:29.128Z,1.97
2023-05-21T09:09:58.176Z,2.77
2023-05-21T09:12:27.927Z,10.37
2023-05-21T09:14:57.894Z,1.50
2023-05-21T09:17:26.260Z,1.83
2023-05-21T09:20:09.680Z,0.90
2023-05-21T09:22:38.558Z,1.03
2023-05-21T09:25:09.038Z,2.60
2023-05-21T09:27:38.738Z,1.40
2023-05-21T09:30:08.501Z,3.77
2023-05-21T09:32:36.858Z,2.77
2023-05-21T09:35:09.512Z,1.53
2023-05-21T09:37:41.174Z,1.93
2023-05-21T09:40:13.813Z,1.20
2023-05-21T09:42:43.512Z,1.73
2023-05-21T09:45:12.257Z,1.83
2023-05-21T09:47:44.644Z,1.67
2023-05-21T09:50:13.057Z,3.33
2023-05-21T09:52:42.210Z,3.13
2023-05-21T09:55:12.914Z,1.33
2023-05-21T09:57:45.713Z,2.20
2023-05-21T10:00:19.391Z,2.80
2023-05-21T10:02:48.120Z,1.90
2023-05-21T10:05:16.802Z,2.90
2023-05-21T10:07:46.937Z,1.23
2023-05-21T10:10:15.683Z,0.80
2023-05-21T10:12:45.935Z,1.60
2023-05-21T10:15:15.163Z,1.30
2023-05-21T10:17:43.500Z,2.77
2023-05-21T10:20:12.279Z,2.17
2023-05-21T10:22:40.944Z,1.20
2023-05-21T10:25:09.604Z,0.73
2023-05-21T10:27:38.042Z,2.60
2023-05-21T10:30:08.709Z,1.23
2023-05-21T10:32:37.129Z,2.37
2023-05-21T10:35:05.827Z,2.77
2023-05-21T10:37:34.163Z,1.03
2023-05-21T10:40:02.812Z,1.13
2023-05-21T10:42:45.544Z,1.57
2023-05-21T10:45:17.035Z,2.43
2023-05-21T10:47:54.115Z,1.60
2023-05-21T10:50:31.738Z,1.10
2023-05-21T10:53:03.338Z,1.10
2023-05-21T10:55:36.242Z,1.33
2023-05-21T10:58:10.811Z,5.23
2023-05-21T11:00:40.470Z,1.30
2023-05-21T11:03:08.922Z,5.90
2023-05-21T11:05:41.678Z,1.43
2023-05-21T11:08:20.640Z,1.40
2023-05-21T11:10:51.747Z,2.17
2023-05-21T11:13:21.650Z,2.00
2023-05-21T11:16:22.499Z,3.97
2023-05-21T11:19:04.462Z,1.47
2023-05-21T11:21:33.002Z,1.60
2023-05-21T11:24:02.740Z,1.70
2023-05-21T11:26:31.456Z,2.63
2023-05-21T11:29:08.604Z,1.33
2023-05-21T11:31:39.378Z,1.43
2023-05-21T11:34:12.546Z,2.07
2023-05-21T11:36:41.205Z,2.53
2023-05-21T11:39:12.872Z,1.17
2023-05-21T11:41:51.694Z,2.60
2023-05-21T11:44:20.012Z,1.20
2023-05-21T11:46:48.353Z,2.03
2023-05-21T11:49:18.320Z,5.33
2023-05-21T11:51:46.686Z,1.70
2023-05-21T11:54:15.005Z,3.90
2023-05-21T11:56:43.350Z,4.13
2023-05-21T11:59:18.802Z,2.20
2023-05-21T12:01:47.398Z,2.90
2023-05-21T12:04:16.315Z,1.50
2023-05-21T12:06:46.018Z,2.13
2023-05-21T12:09:14.482Z,2.20
2023-05-21T12:11:42.902Z,1.83
2023-05-21T12:14:11.617Z,2.87
2023-05-21T12:16:41.128Z,49.23
2023-05-21T12:19:09.466Z,33.27
2023-05-21T12:21:37.844Z,24.93
2023-05-21T12:24:07.885Z,26.23
2023-05-21T12:26:36.236Z,19.50
2023-05-21T12:29:04.590Z,14.17
2023-05-21T12:31:33.036Z,8.17
2023-05-21T12:34:02.261Z,13.57
2023-05-21T12:36:31.869Z,6.67
2023-05-21T12:39:00.256Z,4.37
2023-05-21T12:41:29.997Z,2.67
2023-05-21T12:43:58.426Z,5.00
2023-05-21T12:46:27.366Z,2.87
2023-05-21T12:48:56.008Z,2.57
2023-05-21T12:51:24.350Z,5.50
2023-05-21T12:53:53.189Z,4.50
2023-05-21T12:56:21.775Z,2.13
2023-05-21T12:58:51.591Z,3.47
2023-05-21T13:01:19.969Z,2.20
2023-05-21T13:03:48.377Z,2.93
2023-05-21T13:06:16.713Z,4.80
2023-05-21T13:08:45.060Z,2.63
2023-05-21T13:11:13.372Z,2.73
2023-05-21T13:13:41.726Z,2.43
2023-05-21T13:16:11.527Z,2.80
2023-05-21T13:18:39.891Z,2.67
2023-05-21T13:21:08.238Z,2.23
2023-05-21T13:23:36.532Z,2.23
2023-05-21T13:26:04.873Z,2.30
2023-05-21T13:28:33.183Z,2.40
2023-05-21T13:31:01.506Z,2.60
2023-05-21T13:33:31.791Z,3.63
2023-05-21T13:36:00.416Z,2.43
2023-05-21T13:38:28.709Z,3.03
2023-05-21T13:40:57.040Z,1.93
2023-05-21T13:43:25.463Z,4.00
2023-05-21T13:45:53.790Z,2.80
2023-05-21T13:48:22.087Z,2.57
2023-05-21T13:50:51.862Z,4.13
2023-05-21T13:53:20.211Z,2.33
2023-05-21T13:55:48.546Z,2.50
2023-05-21T13:58:17.058Z,2.60
2023-05-21T14:00:45.558Z,2.97
2023-05-21T14:03:13.934Z,1.43
2023-05-21T14:05:42.275Z,4.77
2023-05-21T14:08:12.612Z,3.27
2023-05-21T14:10:41.704Z,2.63
2023-05-21T14:13:19.183Z,2.90
2023-05-21T14:15:48.786Z,2.13
2023-05-21T14:18:17.126Z,2.83
2023-05-21T14:20:45.443Z,3.33
2023-05-21T14:23:15.099Z,2.57
2023-05-21T14:25:43.469Z,2.77
2023-05-21T14:28:11.804Z,2.47
2023-05-21T14:30:40.149Z,4.33
2023-05-21T14:33:08.488Z,1.73
2023-05-21T14:35:36.986Z,2.83
2023-05-21T14:38:05.592Z,2.20
2023-05-21T14:40:35.315Z,3.47
2023-05-21T14:43:03.970Z,2.57
2023-05-21T14:45:35.346Z,1.53
2023-05-21T14:48:08.346Z,2.00
2023-05-21T14:50:36.908Z,2.80
2023-05-21T14:53:05.976Z,2.70
2023-05-21T14:55:37.235Z,2.07
2023-05-21T14:58:05.935Z,1.57
2023-05-21T15:00:34.324Z,2.23
2023-05-21T15:03:02.933Z,1.87
2023-05-21T15:05:31.433Z,1.30
2023-05-21T15:07:59.795Z,1.67
2023-05-21T15:10:28.395Z,1.63
2023-05-21T15:12:58.069Z,1.63
2023-05-21T15:15:26.370Z,4.00
2023-05-21T15:17:54.877Z,2.07
2023-05-21T15:20:23.384Z,2.60
2023-05-21T15:22:54.889Z,6.40
2023-05-21T15:25:27.700Z,1.63
2023-05-21T15:27:56.497Z,2.17
2023-05-21T15:30:27.348Z,3.73
2023-05-21T15:32:56.929Z,3.17
2023-05-21T15:35:25.396Z,1.30
2023-05-21T15:37:53.872Z,1.77
2023-05-21T15:40:22.942Z,4.33
2023-05-21T15:42:52.731Z,2.60
2023-05-21T15:45:21.177Z,1.47
2023-05-21T15:47:51.047Z,1.37
2023-05-21T15:50:19.420Z,2.10
2023-05-21T15:52:47.773Z,1.50
2023-05-21T15:55:16.144Z,3.13
2023-05-21T15:57:44.478Z,1.23
2023-05-21T16:00:13.544Z,4.73
2023-05-21T16:02:42.015Z,1.27
2023-05-21T16:05:12.011Z,1.80
2023-05-21T16:07:40.359Z,0.90
2023-05-21T16:10:11.150Z,2.13
2023-05-21T16:12:39.707Z,2.23
2023-05-21T16:15:08.517Z,4.77
2023-05-21T16:17:36.872Z,1.40
2023-05-21T16:20:05.622Z,1.20
2023-05-21T16:22:35.320Z,1.43
2023-05-21T16:25:03.790Z,4.27
2023-05-21T16:27:32.146Z,1.03
2023-05-21T16:30:00.572Z,1.30
2023-05-21T16:32:29.115Z,3.17
2023-05-21T16:34:57.544Z,1.83
2023-05-21T16:37:25.850Z,0.83
2023-05-21T16:39:55.553Z,4.37
2023-05-21T16:42:23.915Z,1.87
2023-05-21T16:44:52.209Z,4.03
2023-05-21T16:47:20.596Z,2.03
2023-05-21T16:49:48.976Z,2.27
2023-05-21T16:52:17.344Z,3.53
2023-05-21T16:54:48.777Z,2.07
2023-05-21T16:57:18.565Z,2.70
2023-05-21T16:59:46.868Z,3.67
2023-05-21T17:02:15.227Z,2.37
2023-05-21T17:04:43.575Z,1.73
2023-05-21T17:07:11.879Z,5.10
2023-05-21T17:09:40.206Z,1.77
2023-05-21T17:12:08.730Z,2.35
2023-05-21T17:14:39.660Z,2.33
2023-05-21T17:17:07.774Z,2.77
2023-05-21T17:19:35.971Z,1.00
2023-05-21T17:22:04.091Z,5.63
2023-05-21T17:24:32.113Z,3.83
2023-05-21T17:27:00.183Z,1.43
2023-05-21T17:29:28.202Z,2.10
2023-05-21T17:31:58.052Z,1.10
2023-05-21T17:34:29.455Z,1.80
2023-05-21T17:36:58.020Z,2.70
2023-05-21T17:39:26.348Z,1.57
2023-05-21T17:41:54.372Z,1.03
2023-05-21T17:44:22.636Z,3.03
2023-05-21T17:46:50.910Z,1.87
2023-05-21T17:49:20.664Z,3.10
2023-05-21T17:51:48.983Z,1.43
2023-05-21T17:54:17.050Z,6.13
2023-05-21T17:56:46.559Z,6.10
2023-05-21T17:59:15.962Z,5.03
2023-05-21T18:01:43.977Z,2.87
2023-05-21T18:04:12.835Z,5.10
2023-05-21T18:06:42.260Z,3.27
2023-05-21T18:09:14.210Z,2.50
2023-05-21T18:11:43.659Z,2.87
2023-05-21T18:14:11.664Z,1.27
2023-05-21T18:16:39.737Z,3.40
2023-05-21T18:19:07.883Z,6.93
2023-05-21T18:21:35.966Z,3.90
2023-05-21T18:24:06.422Z,2.07
2023-05-21T18:26:34.434Z,1.80
2023-05-21T18:29:02.438Z,0.93
2023-05-21T18:31:30.548Z,2.03
2023-05-21T18:33:59.160Z,4.10
2023-05-21T18:36:27.575Z,1.67
2023-05-21T18:38:55.584Z,3.80
2023-05-21T18:41:26.399Z,3.20
2023-05-21T18:43:54.441Z,1.13
2023-05-21T18:46:22.526Z,1.23
2023-05-21T18:48:50.562Z,1.40
2023-05-21T18:51:18.618Z,1.33
2023-05-21T18:53:46.675Z,3.27
2023-05-21T18:56:15.003Z,4.20
2023-05-21T18:58:44.363Z,2.47
2023-05-21T19:01:12.400Z,3.80
2023-05-21T19:03:40.483Z,2.90
2023-05-21T19:06:09.459Z,0.77
2023-05-21T19:08:37.785Z,1.07
2023-05-21T19:11:07.281Z,2.23
2023-05-21T19:13:35.703Z,4.53
2023-05-21T19:16:10.894Z,2.10
2023-05-21T19:18:42.033Z,1.87
2023-05-21T19:21:11.931Z,1.23
2023-05-21T19:23:51.919Z,1.50
2023-05-21T19:26:22.355Z,5.13
2023-05-21T19:28:54.367Z,2.90
2023-05-21T19:31:25.229Z,1.07
2023-05-21T19:33:53.385Z,3.67
2023-05-21T19:36:21.925Z,1.73
2023-05-21T19:38:49.963Z,3.63
2023-05-21T19:41:17.980Z,3.23
2023-05-21T19:43:46.164Z,1.20
2023-05-21T19:46:16.586Z,0.73
2023-05-21T19:48:48.570Z,1.10
2023-05-21T19:51:16.745Z,1.47
2023-05-21T19:53:44.736Z,2.90
2023-05-21T19:56:12.806Z,1.67
2023-05-21T19:58:40.870Z,1.07
2023-05-21T20:01:08.917Z,3.70
2023-05-21T20:03:37.093Z,2.00
2023-05-21T20:06:06.696Z,2.50
2023-05-21T20:08:34.735Z,1.43
2023-05-21T20:11:03.165Z,1.23
2023-05-21T20:13:31.175Z,1.20
2023-05-21T20:15:59.478Z,1.80
2023-05-21T20:18:28.108Z,0.90
2023-05-21T20:20:56.845Z,2.47
2023-05-21T20:23:26.532Z,1.57
2023-05-21T20:25:54.892Z,2.47
2023-05-21T20:28:23.352Z,1.30
2023-05-21T20:30:57.622Z,2.33
2023-05-21T20:33:26.597Z,1.80
2023-05-21T20:35:54.965Z,1.73
2023-05-21T20:38:25.721Z,1.07
2023-05-21T20:40:55.421Z,2.67
2023-05-21T20:43:24.443Z,1.30
2023-05-21T20:45:59.388Z,1.60
2023-05-21T20:48:29.044Z,0.77
2023-05-21T20:50:57.454Z,3.40
2023-05-21T20:53:26.031Z,2.10
2023-05-21T20:55:55.547Z,0.83
2023-05-21T20:58:24.001Z,0.90
2023-05-21T21:00:52.127Z,1.37
2023-05-21T21:03:21.628Z,0.77
2023-05-21T21:05:49.989Z,3.07
2023-05-21T21:08:18.323Z,1.20
2023-05-21T21:10:46.934Z,1.07
2023-05-21T21:13:16.777Z,1.37
2023-05-21T21:15:44.830Z,1.00
2023-05-21T21:18:13.064Z,2.57
2023-05-21T21:20:42.635Z,1.63
2023-05-21T21:23:10.682Z,2.23
2023-05-21T21:25:38.657Z,4.33
2023-05-21T21:28:06.678Z,0.60
2023-05-21T21:30:36.566Z,1.43
2023-05-21T21:33:05.089Z,2.93
2023-05-21T21:35:33.465Z,1.53
2023-05-21T21:38:01.810Z,1.43
2023-05-21T21:40:29.823Z,2.80
2023-05-21T21:42:57.832Z,1.60
2023-05-21T21:45:25.927Z,1.73
2023-05-21T21:47:55.380Z,1.37
2023-05-21T21:50:23.426Z,1.23
2023-05-21T21:52:55.848Z,1.37
2023-05-21T21:55:23.869Z,0.70
2023-05-21T21:57:51.916Z,0.67
2023-05-21T22:00:20.997Z,4.80
2023-05-21T22:02:49.057Z,2.03
2023-05-21T22:05:19.315Z,0.93
2023-05-21T22:07:47.714Z,2.73
2023-05-21T22:10:16.164Z,3.03
2023-05-21T22:12:44.310Z,5.13
2023-05-21T22:15:18.479Z,3.03
2023-05-21T22:17:47.506Z,1.20
2023-05-21T22:20:17.453Z,2.10
2023-05-21T22:22:47.103Z,0.73
2023-05-21T22:25:15.153Z,2.40
2023-05-21T22:27:43.378Z,0.77
2023-05-21T22:30:12.149Z,2.77
2023-05-21T22:32:40.174Z,0.80
2023-05-21T22:35:09.052Z,0.87
2023-05-21T22:37:38.168Z,1.20
2023-05-21T22:40:09.185Z,0.60
2023-05-21T22:42:37.263Z,0.73
2023-05-21T22:45:05.909Z,0.97
2023-05-21T22:47:36.985Z,2.47
2023-05-21T22:50:05.454Z,1.63
2023-05-21T22:52:34.440Z,1.33
2023-05-21T22:55:02.625Z,1.90
2023-05-21T22:57:31.946Z,1.83
2023-05-21T22:59:59.953Z,0.83
2023-05-21T23:02:27.983Z,1.13
2023-05-21T23:04:56.034Z,0.80
2023-05-21T23:07:24.364Z,0.60
2023-05-21T23:09:52.366Z,0.87
2023-05-21T23:12:20.428Z,3.13
2023-05-21T23:14:49.808Z,1.30
2023-05-21T23:17:17.937Z,0.70
2023-05-21T23:19:45.909Z,1.37
2023-05-21T23:22:13.893Z,1.13
2023-05-21T23:24:41.933Z,1.50
2023-05-21T23:27:09.915Z,2.70
2023-05-21T23:29:37.948Z,1.10
2023-05-21T23:32:08.065Z,1.63
2023-05-21T23:34:36.316Z,1.00
2023-05-21T23:37:04.415Z,0.93
2023-05-21T23:39:32.381Z,3.23
2023-05-21T23:42:00.606Z,2.10
2023-05-21T23:44:28.593Z,1.40
2023-05-21T23:46:56.587Z,1.03
2023-05-21T23:49:25.944Z,1.90
2023-05-21T23:51:53.970Z,3.63
2023-05-21T23:54:21.952Z,0.73
2023-05-21T23:56:49.977Z,0.53
2023-05-21T23:59:18.664Z,1.33
